createdAt,value
2018-06-05T00:00:33.133Z,988.21
2018-06-05T00:01:33.069Z,988.25
2018-06-05T00:03:26.293Z,988.20
2018-06-05T00:04:26.201Z,988.20
2018-06-05T00:06:19.023Z,988.18
2018-06-05T00:07:18.917Z,988.14
2018-06-05T00:09:11.679Z,988.18
2018-06-05T00:10:11.571Z,988.17
2018-06-05T00:12:04.462Z,988.21
2018-06-05T00:13:04.320Z,988.18
2018-06-05T00:14:57.157Z,988.21
2018-06-05T00:15:57.067Z,988.20
2018-06-05T00:17:49.832Z,988.17
2018-06-05T00:18:49.742Z,988.17
2018-06-05T00:20:43.150Z,988.13
2018-06-05T00:21:42.877Z,988.14
2018-06-05T00:23:35.710Z,988.10
2018-06-05T00:24:35.622Z,988.09
2018-06-05T00:26:28.406Z,988.07
2018-06-05T00:27:28.305Z,988.03
2018-06-05T00:29:21.631Z,988.07
2018-06-05T00:30:21.537Z,988.10
2018-06-05T00:32:14.306Z,988.04
2018-06-05T00:33:14.205Z,988.02
2018-06-05T00:35:07.025Z,987.99
2018-06-05T00:36:06.929Z,987.98
2018-06-05T00:37:59.692Z,987.99
2018-06-05T00:38:59.580Z,987.97
2018-06-05T00:40:52.443Z,987.99
2018-06-05T00:41:52.340Z,988.05
2018-06-05T00:43:45.095Z,988.04
2018-06-05T00:44:44.997Z,988.06
2018-06-05T00:46:37.862Z,988.04
2018-06-05T00:47:37.743Z,988.07
2018-06-05T00:49:31.015Z,988.05
2018-06-05T00:50:30.912Z,988.03
2018-06-05T00:52:23.760Z,988.06
2018-06-05T00:53:23.638Z,988.07
2018-06-05T00:55:16.408Z,988.08
2018-06-05T00:56:16.279Z,988.04
2018-06-05T00:58:09.155Z,988.09
2018-06-05T00:59:09.032Z,988.09
2018-06-05T01:01:01.809Z,988.10
2018-06-05T01:02:01.688Z,988.07
2018-06-05T01:03:54.546Z,988.08
2018-06-05T01:04:54.430Z,988.02
2018-06-05T01:06:47.312Z,988.06
2018-06-05T01:07:47.198Z,988.02
2018-06-05T01:09:40.947Z,988.03
2018-06-05T01:10:40.853Z,988.04
2018-06-05T01:12:34.126Z,988.03
2018-06-05T01:13:34.023Z,987.98
2018-06-05T01:15:26.883Z,988.02
2018-06-05T01:16:26.662Z,988.00
2018-06-05T01:18:19.541Z,988.09
2018-06-05T01:19:19.431Z,988.02
2018-06-05T01:21:12.677Z,988.04
2018-06-05T01:22:12.561Z,987.98
2018-06-05T01:24:05.448Z,988.02
2018-06-05T01:25:05.303Z,988.00
2018-06-05T01:26:58.156Z,987.97
2018-06-05T01:27:58.065Z,987.97
2018-06-05T01:29:50.927Z,987.97
2018-06-05T01:30:50.806Z,987.95
2018-06-05T01:32:43.553Z,987.91
2018-06-05T01:33:43.468Z,987.93
2018-06-05T01:35:36.833Z,987.91
2018-06-05T01:36:36.298Z,987.93
2018-06-05T01:38:28.990Z,987.90
2018-06-05T01:39:28.937Z,987.90
2018-06-05T01:41:21.765Z,987.93
2018-06-05T01:42:21.603Z,987.93
2018-06-05T01:44:14.972Z,987.91
2018-06-05T01:45:14.257Z,987.88
2018-06-05T01:47:07.137Z,987.94
2018-06-05T01:48:07.027Z,987.90
2018-06-05T01:49:59.837Z,987.89
2018-06-05T01:50:59.742Z,987.92
2018-06-05T01:52:52.509Z,987.90
2018-06-05T01:53:52.401Z,987.88
2018-06-05T01:55:45.142Z,987.92
2018-06-05T01:56:45.045Z,987.90
2018-06-05T01:58:37.895Z,987.89
2018-06-05T01:59:37.791Z,987.86
2018-06-05T02:01:30.535Z,987.83
2018-06-05T02:02:30.444Z,987.82
2018-06-05T02:04:23.305Z,987.84
2018-06-05T02:05:23.204Z,987.82
2018-06-05T02:07:15.972Z,987.82
2018-06-05T02:08:15.855Z,987.83
2018-06-05T02:10:08.705Z,987.85
2018-06-05T02:11:08.586Z,987.82
2018-06-05T02:13:01.343Z,987.81
2018-06-05T02:14:01.238Z,987.79
2018-06-05T02:15:54.079Z,987.74
2018-06-05T02:16:54.003Z,987.76
2018-06-05T02:18:46.837Z,987.73
2018-06-05T02:19:46.738Z,987.75
2018-06-05T02:21:39.477Z,987.76
2018-06-05T02:22:39.390Z,987.73
2018-06-05T02:24:32.249Z,987.74
2018-06-05T02:25:32.127Z,987.73
2018-06-05T02:27:24.998Z,987.71
2018-06-05T02:28:24.901Z,987.72
2018-06-05T02:30:17.745Z,987.74
2018-06-05T02:31:17.657Z,987.73
2018-06-05T02:33:10.375Z,987.75
2018-06-05T02:34:10.287Z,987.78
2018-06-05T02:36:03.142Z,987.70
2018-06-05T02:37:03.058Z,987.74
2018-06-05T02:38:55.792Z,987.74
2018-06-05T02:39:55.688Z,987.73
2018-06-05T02:41:48.539Z,987.71
2018-06-05T02:42:48.426Z,987.72
2018-06-05T02:44:41.795Z,987.69
2018-06-05T02:45:41.617Z,987.70
2018-06-05T02:47:34.344Z,987.71
2018-06-05T02:48:34.236Z,987.72
2018-06-05T02:50:27.065Z,987.71
2018-06-05T02:51:26.975Z,987.76
2018-06-05T02:53:19.744Z,987.73
2018-06-05T02:54:19.639Z,987.72
2018-06-05T02:56:12.408Z,987.71
2018-06-05T02:57:12.336Z,987.76
2018-06-05T02:59:05.037Z,987.81
2018-06-05T03:00:04.941Z,987.79
2018-06-05T03:01:57.780Z,987.79
2018-06-05T03:02:57.688Z,987.80
2018-06-05T03:04:50.432Z,987.86
2018-06-05T03:05:50.336Z,987.82
2018-06-05T03:07:43.187Z,987.83
2018-06-05T03:08:43.080Z,987.86
2018-06-05T03:10:35.832Z,987.88
2018-06-05T03:11:35.709Z,987.86
2018-06-05T03:13:28.992Z,987.88
2018-06-05T03:14:28.889Z,987.84
2018-06-05T03:16:21.744Z,987.91
2018-06-05T03:17:21.629Z,987.90
2018-06-05T03:19:14.379Z,987.92
2018-06-05T03:20:14.271Z,987.94
2018-06-05T03:22:07.111Z,987.92
2018-06-05T03:23:07.015Z,987.98
2018-06-05T03:24:59.789Z,987.98
2018-06-05T03:25:59.677Z,987.97
2018-06-05T03:27:52.951Z,987.95
2018-06-05T03:28:52.837Z,987.94
2018-06-05T03:30:45.588Z,987.98
2018-06-05T03:31:45.503Z,988.01
2018-06-05T03:33:38.223Z,988.02
2018-06-05T03:34:38.129Z,988.01
2018-06-05T03:36:30.887Z,988.02
2018-06-05T03:37:30.771Z,988.01
2018-06-05T03:39:23.512Z,988.01
2018-06-05T03:40:23.417Z,988.05
2018-06-05T03:42:16.175Z,988.11
2018-06-05T03:43:16.077Z,988.10
2018-06-05T03:45:08.922Z,988.11
2018-06-05T03:46:08.714Z,988.13
2018-06-05T03:48:01.593Z,988.15
2018-06-05T03:49:01.459Z,988.08
2018-06-05T03:50:54.779Z,988.16
2018-06-05T03:51:54.632Z,988.16
2018-06-05T03:53:47.454Z,988.16
2018-06-05T03:54:47.362Z,988.16
2018-06-05T03:56:40.143Z,988.21
2018-06-05T03:57:40.032Z,988.22
2018-06-05T03:59:32.886Z,988.21
2018-06-05T04:00:32.771Z,988.22
2018-06-05T04:02:25.619Z,988.20
2018-06-05T04:03:25.513Z,988.23
2018-06-05T04:05:18.368Z,988.25
2018-06-05T04:06:18.190Z,988.23
2018-06-05T04:08:10.949Z,988.32
2018-06-05T04:09:10.811Z,988.31
2018-06-05T04:11:05.172Z,988.26
2018-06-05T04:12:04.078Z,988.31
2018-06-05T04:13:56.959Z,988.36
2018-06-05T04:14:56.721Z,988.40
2018-06-05T04:16:51.227Z,988.40
2018-06-05T04:17:49.470Z,988.41
2018-06-05T04:19:42.310Z,988.48
2018-06-05T04:20:42.215Z,988.48
2018-06-05T04:22:34.991Z,988.47
2018-06-05T04:23:34.896Z,988.50
2018-06-05T04:25:27.629Z,988.44
2018-06-05T04:26:27.515Z,988.46
2018-06-05T04:28:20.401Z,988.51
2018-06-05T04:29:20.274Z,988.50
2018-06-05T04:31:13.002Z,988.50
2018-06-05T04:32:12.920Z,988.52
2018-06-05T04:34:06.217Z,988.51
2018-06-05T04:35:06.070Z,988.53
2018-06-05T04:36:59.314Z,988.52
2018-06-05T04:37:59.230Z,988.57
2018-06-05T04:39:52.092Z,988.52
2018-06-05T04:40:51.975Z,988.54
2018-06-05T04:42:44.736Z,988.56
2018-06-05T04:43:44.622Z,988.54
2018-06-05T04:45:37.463Z,988.53
2018-06-05T04:46:37.365Z,988.57
2018-06-05T04:48:30.130Z,988.56
2018-06-05T04:49:30.037Z,988.57
2018-06-05T04:51:22.869Z,988.59
2018-06-05T04:52:22.672Z,988.58
2018-06-05T04:54:15.942Z,988.64
2018-06-05T04:55:15.826Z,988.56
2018-06-05T04:57:09.181Z,988.57
2018-06-05T04:58:09.103Z,988.59
2018-06-05T05:00:01.841Z,988.55
2018-06-05T05:01:01.738Z,988.54
2018-06-05T05:02:54.489Z,988.54
2018-06-05T05:03:54.373Z,988.56
2018-06-05T05:05:47.250Z,988.56
2018-06-05T05:06:47.133Z,988.58
2018-06-05T05:08:39.987Z,988.61
2018-06-05T05:09:39.899Z,988.63
2018-06-05T05:11:32.744Z,988.69
2018-06-05T05:12:32.632Z,988.64
2018-06-05T05:14:25.401Z,988.68
2018-06-05T05:15:25.282Z,988.67
2018-06-05T05:17:18.128Z,988.72
2018-06-05T05:18:18.049Z,988.71
2018-06-05T05:20:10.894Z,988.72
2018-06-05T05:21:10.672Z,988.73
2018-06-05T05:23:03.422Z,988.73
2018-06-05T05:24:03.323Z,988.71
2018-06-05T05:25:56.197Z,988.71
2018-06-05T05:26:56.078Z,988.77
2018-06-05T05:28:48.916Z,988.72
2018-06-05T05:29:48.820Z,988.73
2018-06-05T05:31:42.190Z,988.72
2018-06-05T05:32:41.982Z,988.73
2018-06-05T05:34:34.825Z,988.74
2018-06-05T05:35:34.727Z,988.75
2018-06-05T05:37:27.571Z,988.76
2018-06-05T05:38:27.481Z,988.74
2018-06-05T05:40:20.348Z,988.75
2018-06-05T05:41:20.247Z,988.75
2018-06-05T05:43:13.075Z,988.76
2018-06-05T05:44:12.989Z,988.76
2018-06-05T05:46:05.751Z,988.76
2018-06-05T05:47:05.708Z,988.71
2018-06-05T05:48:58.473Z,988.73
2018-06-05T05:49:58.275Z,988.73
2018-06-05T05:51:51.047Z,988.77
2018-06-05T05:52:50.917Z,988.80
2018-06-05T05:54:43.846Z,988.80
2018-06-05T05:55:43.688Z,988.78
2018-06-05T05:57:36.545Z,988.81
2018-06-05T05:58:36.419Z,988.80
2018-06-05T06:00:29.299Z,988.82
2018-06-05T06:01:29.171Z,988.85
2018-06-05T06:03:22.008Z,988.85
2018-06-05T06:04:21.921Z,988.87
2018-06-05T06:06:14.783Z,988.86
2018-06-05T06:07:14.699Z,988.89
2018-06-05T06:09:07.405Z,988.90
2018-06-05T06:10:07.314Z,988.87
2018-06-05T06:12:00.191Z,988.85
2018-06-05T06:13:00.088Z,988.85
2018-06-05T06:14:52.829Z,988.85
2018-06-05T06:15:52.711Z,988.86
2018-06-05T06:17:45.476Z,988.89
2018-06-05T06:18:45.361Z,988.89
2018-06-05T06:20:38.096Z,988.96
2018-06-05T06:21:38.008Z,988.91
2018-06-05T06:23:30.866Z,988.96
2018-06-05T06:24:30.698Z,988.94
2018-06-05T06:26:23.433Z,988.88
2018-06-05T06:27:23.308Z,988.91
2018-06-05T06:29:16.147Z,988.95
2018-06-05T06:30:16.046Z,988.92
2018-06-05T06:32:08.814Z,988.97
2018-06-05T06:33:08.717Z,988.93
2018-06-05T06:35:01.465Z,988.98
2018-06-05T06:36:01.344Z,988.95
2018-06-05T06:37:54.101Z,988.94
2018-06-05T06:38:53.992Z,988.96
2018-06-05T06:40:46.827Z,988.99
2018-06-05T06:41:46.741Z,989.01
2018-06-05T06:43:39.509Z,988.99
2018-06-05T06:44:39.384Z,988.96
2018-06-05T06:46:32.131Z,988.98
2018-06-05T06:47:32.038Z,989.02
2018-06-05T06:49:24.898Z,989.02
2018-06-05T06:50:24.788Z,989.06
2018-06-05T06:52:17.549Z,989.04
2018-06-05T06:53:17.431Z,989.10
2018-06-05T06:55:10.272Z,989.11
2018-06-05T06:56:10.177Z,989.10
2018-06-05T06:58:02.940Z,989.10
2018-06-05T06:59:02.848Z,989.12
2018-06-05T07:00:55.686Z,989.12
2018-06-05T07:01:55.474Z,989.14
2018-06-05T07:03:48.247Z,989.17
2018-06-05T07:04:48.120Z,989.15
2018-06-05T07:06:40.966Z,989.16
2018-06-05T07:07:40.874Z,989.14
2018-06-05T07:09:33.650Z,989.18
2018-06-05T07:10:33.519Z,989.17
2018-06-05T07:12:26.256Z,989.15
2018-06-05T07:13:26.161Z,989.14
2018-06-05T07:15:18.956Z,989.11
2018-06-05T07:16:18.835Z,989.12
2018-06-05T07:18:11.603Z,989.14
2018-06-05T07:19:11.460Z,989.13
2018-06-05T07:21:04.340Z,989.19
2018-06-05T07:22:04.122Z,989.21
2018-06-05T07:23:57.004Z,989.20
2018-06-05T07:24:56.872Z,989.18
2018-06-05T07:26:49.632Z,989.20
2018-06-05T07:27:49.503Z,989.20
2018-06-05T07:29:42.248Z,989.20
2018-06-05T07:30:42.157Z,989.18
2018-06-05T07:32:35.017Z,989.23
2018-06-05T07:33:34.898Z,989.24
2018-06-05T07:35:27.647Z,989.27
2018-06-05T07:36:27.543Z,989.27
2018-06-05T07:38:20.331Z,989.29
2018-06-05T07:39:20.208Z,989.26
2018-06-05T07:41:13.039Z,989.30
2018-06-05T07:42:12.952Z,989.33
2018-06-05T07:44:05.825Z,989.34
2018-06-05T07:45:05.696Z,989.29
2018-06-05T07:46:58.461Z,989.32
2018-06-05T07:47:58.338Z,989.32
2018-06-05T07:49:51.102Z,989.33
2018-06-05T07:50:50.989Z,989.36
2018-06-05T07:52:43.754Z,989.35
2018-06-05T07:53:43.641Z,989.33
2018-06-05T07:55:36.546Z,989.29
2018-06-05T07:56:36.283Z,989.36
2018-06-05T07:58:29.122Z,989.37
2018-06-05T07:59:29.033Z,989.33
2018-06-05T08:01:21.805Z,989.34
2018-06-05T08:02:21.684Z,989.35
2018-06-05T08:04:14.447Z,989.36
2018-06-05T08:05:14.337Z,989.37
2018-06-05T08:07:07.220Z,989.39
2018-06-05T08:08:07.080Z,989.38
2018-06-05T08:09:59.931Z,989.44
2018-06-05T08:10:59.731Z,989.40
2018-06-05T08:12:52.602Z,989.43
2018-06-05T08:13:52.474Z,989.45
2018-06-05T08:15:45.318Z,989.51
2018-06-05T08:16:45.226Z,989.51
2018-06-05T08:18:38.001Z,989.54
2018-06-05T08:19:37.887Z,989.52
2018-06-05T08:21:30.716Z,989.58
2018-06-05T08:22:30.625Z,989.57
2018-06-05T08:24:23.561Z,989.60
2018-06-05T08:25:23.273Z,989.58
2018-06-05T08:27:16.129Z,989.59
2018-06-05T08:28:16.017Z,989.56
2018-06-05T08:30:09.309Z,989.63
2018-06-05T08:31:09.178Z,989.62
2018-06-05T08:33:02.017Z,989.66
2018-06-05T08:34:01.934Z,989.69
2018-06-05T08:35:54.696Z,989.70
2018-06-05T08:36:54.580Z,989.70
2018-06-05T08:38:47.417Z,989.73
2018-06-05T08:39:47.321Z,989.72
2018-06-05T08:41:40.099Z,989.70
2018-06-05T08:42:39.969Z,989.71
2018-06-05T08:44:32.817Z,989.71
2018-06-05T08:45:32.722Z,989.70
2018-06-05T08:47:25.585Z,989.68
2018-06-05T08:48:25.495Z,989.74
2018-06-05T08:50:18.227Z,989.74
2018-06-05T08:51:18.117Z,989.75
2018-06-05T08:53:10.992Z,989.81
2018-06-05T08:54:10.876Z,989.78
2018-06-05T08:56:03.721Z,989.79
2018-06-05T08:57:03.633Z,989.77
2018-06-05T08:58:56.509Z,989.77
2018-06-05T08:59:56.385Z,989.79
2018-06-05T09:01:49.269Z,989.79
2018-06-05T09:02:49.118Z,989.78
2018-06-05T09:04:41.910Z,989.79
2018-06-05T09:05:41.772Z,989.75
2018-06-05T09:07:34.635Z,989.77
2018-06-05T09:08:34.526Z,989.81
2018-06-05T09:10:27.371Z,989.79
2018-06-05T09:11:27.262Z,989.80
2018-06-05T09:13:19.997Z,989.82
2018-06-05T09:14:19.919Z,989.87
2018-06-05T09:16:13.694Z,989.88
2018-06-05T09:17:13.583Z,989.96
2018-06-05T09:19:06.433Z,989.92
2018-06-05T09:20:06.329Z,989.94
2018-06-05T09:21:59.210Z,989.96
2018-06-05T09:22:59.092Z,989.94
2018-06-05T09:24:51.835Z,990.00
2018-06-05T09:25:51.733Z,990.00
2018-06-05T09:27:44.592Z,989.97
2018-06-05T09:28:44.469Z,989.99
2018-06-05T09:30:37.427Z,989.96
2018-06-05T09:31:37.325Z,989.98
2018-06-05T09:33:30.204Z,990.02
2018-06-05T09:34:30.123Z,989.99
2018-06-05T09:36:22.929Z,989.97
2018-06-05T09:37:22.847Z,990.03
2018-06-05T09:39:15.709Z,989.99
2018-06-05T09:40:15.580Z,989.98
2018-06-05T09:42:08.441Z,989.99
2018-06-05T09:43:08.341Z,989.99
2018-06-05T09:45:01.197Z,989.95
2018-06-05T09:46:01.082Z,989.98
2018-06-05T09:47:53.921Z,990.00
2018-06-05T09:48:53.849Z,990.03
2018-06-05T09:50:46.710Z,990.01
2018-06-05T09:51:46.584Z,990.01
2018-06-05T09:53:39.419Z,990.02
2018-06-05T09:54:39.322Z,990.01
2018-06-05T09:56:32.190Z,990.00
2018-06-05T09:57:32.077Z,990.00
2018-06-05T09:59:24.935Z,989.98
2018-06-05T10:00:24.822Z,989.95
2018-06-05T10:02:17.697Z,990.00
2018-06-05T10:03:17.570Z,989.97
2018-06-05T10:05:11.930Z,989.98
2018-06-05T10:06:10.316Z,990.00
2018-06-05T10:08:03.221Z,989.97
2018-06-05T10:09:03.074Z,989.96
2018-06-05T10:10:55.922Z,989.96
2018-06-05T10:11:55.839Z,989.99
2018-06-05T10:13:48.687Z,989.97
2018-06-05T10:14:48.590Z,989.95
2018-06-05T10:16:41.531Z,989.96
2018-06-05T10:17:41.450Z,989.92
2018-06-05T10:19:34.269Z,989.96
2018-06-05T10:20:34.177Z,989.96
2018-06-05T10:22:27.527Z,989.99
2018-06-05T10:23:27.435Z,989.93
2018-06-05T10:25:20.310Z,989.91
2018-06-05T10:26:20.181Z,989.95
2018-06-05T10:28:13.568Z,989.92
2018-06-05T10:29:13.453Z,989.90
2018-06-05T10:31:06.306Z,989.91
2018-06-05T10:32:06.271Z,989.96
2018-06-05T10:33:59.563Z,989.87
2018-06-05T10:34:59.485Z,989.88
2018-06-05T10:36:52.310Z,989.88
2018-06-05T10:37:52.213Z,989.88
2018-06-05T10:39:45.070Z,989.88
2018-06-05T10:40:44.955Z,989.84
2018-06-05T10:42:38.017Z,989.86
2018-06-05T10:43:37.910Z,989.88
2018-06-05T10:45:30.770Z,989.86
2018-06-05T10:46:30.671Z,989.87
2018-06-05T10:48:23.504Z,989.86
2018-06-05T10:49:23.430Z,989.88
2018-06-05T10:51:16.279Z,989.85
2018-06-05T10:52:16.166Z,989.80
2018-06-05T10:54:09.045Z,989.86
2018-06-05T10:55:08.912Z,989.85
2018-06-05T10:57:01.767Z,989.78
2018-06-05T10:58:01.658Z,989.75
2018-06-05T10:59:54.522Z,989.71
2018-06-05T11:00:54.430Z,989.73
2018-06-05T11:02:47.282Z,989.76
2018-06-05T11:03:47.156Z,989.77
2018-06-05T11:05:40.049Z,989.76
2018-06-05T11:06:39.908Z,989.76
2018-06-05T11:08:33.696Z,989.79
2018-06-05T11:09:32.674Z,989.79
2018-06-05T11:11:25.534Z,989.77
2018-06-05T11:12:25.422Z,989.77
2018-06-05T11:14:18.247Z,989.73
2018-06-05T11:15:18.153Z,989.75
2018-06-05T11:17:11.027Z,989.74
2018-06-05T11:18:10.919Z,989.74
2018-06-05T11:20:03.767Z,989.72
2018-06-05T11:21:03.663Z,989.70
2018-06-05T11:22:56.512Z,989.68
2018-06-05T11:23:56.404Z,989.64
2018-06-05T11:25:49.777Z,989.63
2018-06-05T11:26:49.671Z,989.66
2018-06-05T11:28:43.032Z,989.61
2018-06-05T11:29:42.927Z,989.59
2018-06-05T11:31:35.807Z,989.65
2018-06-05T11:32:35.682Z,989.63
2018-06-05T11:34:28.535Z,989.60
2018-06-05T11:35:28.428Z,989.55
2018-06-05T11:37:21.310Z,989.58
2018-06-05T11:38:21.174Z,989.57
2018-06-05T11:40:14.169Z,989.55
2018-06-05T11:41:14.036Z,989.52
2018-06-05T11:43:08.400Z,989.57
2018-06-05T11:44:08.332Z,989.56
2018-06-05T11:46:01.193Z,989.58
2018-06-05T11:47:01.072Z,989.55
2018-06-05T11:48:53.906Z,989.54
2018-06-05T11:49:53.826Z,989.50
2018-06-05T11:51:46.674Z,989.51
2018-06-05T11:52:46.573Z,989.43
2018-06-05T11:54:39.402Z,989.43
2018-06-05T11:55:39.313Z,989.45
2018-06-05T11:57:32.319Z,989.40
2018-06-05T11:58:32.175Z,989.39
2018-06-05T12:00:25.020Z,989.43
2018-06-05T12:01:24.911Z,989.52
2018-06-05T12:03:18.692Z,989.49
2018-06-05T12:04:18.621Z,989.48
2018-06-05T12:06:11.469Z,989.44
2018-06-05T12:07:11.335Z,989.39
2018-06-05T12:09:04.278Z,989.40
2018-06-05T12:10:04.217Z,989.38
2018-06-05T12:11:57.034Z,989.37
2018-06-05T12:12:56.938Z,989.38
2018-06-05T12:14:49.795Z,989.34
2018-06-05T12:15:49.683Z,989.34
2018-06-05T12:17:42.559Z,989.28
2018-06-05T12:18:42.447Z,989.28
2018-06-05T12:20:35.290Z,989.27
2018-06-05T12:21:35.202Z,989.29
2018-06-05T12:23:28.026Z,989.28
2018-06-05T12:24:27.934Z,989.26
2018-06-05T12:26:20.799Z,989.25
2018-06-05T12:27:20.685Z,989.26
2018-06-05T12:29:13.526Z,989.21
2018-06-05T12:30:13.459Z,989.25
2018-06-05T12:32:06.360Z,989.17
2018-06-05T12:33:06.260Z,989.19
2018-06-05T12:34:59.038Z,989.12
2018-06-05T12:35:58.957Z,989.14
2018-06-05T12:37:51.790Z,989.19
2018-06-05T12:38:51.681Z,989.12
2018-06-05T12:40:44.553Z,989.15
2018-06-05T12:41:44.477Z,989.16
2018-06-05T12:43:37.273Z,989.13
2018-06-05T12:44:37.184Z,989.15
2018-06-05T12:46:30.041Z,989.07
2018-06-05T12:47:29.946Z,989.09
2018-06-05T12:49:22.776Z,989.12
2018-06-05T12:50:22.717Z,989.10
2018-06-05T12:52:15.569Z,989.14
2018-06-05T12:53:15.434Z,989.10
2018-06-05T12:55:08.288Z,989.09
2018-06-05T12:56:08.186Z,989.06
2018-06-05T12:58:01.577Z,989.09
2018-06-05T12:59:01.469Z,989.07
2018-06-05T13:00:54.813Z,989.04
2018-06-05T13:01:54.706Z,989.06
2018-06-05T13:03:47.671Z,989.04
2018-06-05T13:04:47.558Z,989.04
2018-06-05T13:06:40.420Z,989.06
2018-06-05T13:07:40.303Z,989.05
2018-06-05T13:09:33.168Z,989.06
2018-06-05T13:10:33.093Z,989.10
2018-06-05T13:12:25.927Z,989.09
2018-06-05T13:13:25.828Z,989.07
2018-06-05T13:15:18.643Z,989.11
2018-06-05T13:16:18.557Z,989.11
2018-06-05T13:18:11.929Z,989.05
2018-06-05T13:19:11.817Z,989.06
2018-06-05T13:21:04.777Z,989.06
2018-06-05T13:22:04.719Z,989.03
2018-06-05T13:23:57.615Z,989.05
2018-06-05T13:24:57.536Z,989.06
2018-06-05T13:26:50.504Z,989.06
2018-06-05T13:27:50.380Z,989.09
2018-06-05T13:29:43.273Z,989.06
2018-06-05T13:30:43.123Z,989.07
2018-06-05T13:32:35.996Z,989.04
2018-06-05T13:33:35.914Z,989.07
2018-06-05T13:35:29.228Z,988.99
2018-06-05T13:36:29.158Z,989.01
2018-06-05T13:38:22.006Z,989.03
2018-06-05T13:39:21.891Z,989.08
2018-06-05T13:41:14.844Z,989.03
2018-06-05T13:42:14.751Z,989.02
2018-06-05T13:44:07.697Z,989.03
2018-06-05T13:45:07.586Z,988.98
2018-06-05T13:47:00.764Z,989.03
2018-06-05T13:48:00.646Z,989.00
2018-06-05T13:49:53.622Z,988.99
2018-06-05T13:50:53.527Z,989.02
2018-06-05T13:52:46.464Z,988.95
2018-06-05T13:53:46.350Z,988.99
2018-06-05T13:55:39.290Z,988.98
2018-06-05T13:56:39.211Z,989.03
2018-06-05T13:58:32.161Z,989.03
2018-06-05T13:59:32.061Z,989.03
2018-06-05T14:01:25.011Z,989.00
2018-06-05T14:02:24.901Z,989.03
2018-06-05T14:04:17.872Z,988.97
2018-06-05T14:05:17.785Z,989.01
2018-06-05T14:07:10.730Z,989.02
2018-06-05T14:08:10.624Z,988.94
2018-06-05T14:10:03.555Z,988.90
2018-06-05T14:11:03.453Z,988.94
2018-06-05T14:12:56.441Z,988.90
2018-06-05T14:13:56.322Z,988.92
2018-06-05T14:15:49.278Z,988.88
2018-06-05T14:16:49.173Z,988.96
2018-06-05T14:18:42.122Z,988.92
2018-06-05T14:19:42.033Z,988.92
2018-06-05T14:21:34.983Z,988.90
2018-06-05T14:22:34.888Z,988.95
2018-06-05T14:24:27.826Z,988.91
2018-06-05T14:25:27.731Z,988.89
2018-06-05T14:27:20.707Z,988.85
2018-06-05T14:28:20.587Z,988.91
2018-06-05T14:30:13.539Z,988.91
2018-06-05T14:31:13.435Z,988.87
2018-06-05T14:33:06.432Z,988.84
2018-06-05T14:34:06.321Z,988.83
2018-06-05T14:35:59.220Z,988.83
2018-06-05T14:36:59.152Z,988.81
2018-06-05T14:38:52.655Z,988.79
2018-06-05T14:39:52.488Z,988.78
2018-06-05T14:41:45.467Z,988.72
2018-06-05T14:42:45.368Z,988.82
2018-06-05T14:44:38.320Z,988.78
2018-06-05T14:45:38.240Z,988.83
2018-06-05T14:47:31.175Z,988.82
2018-06-05T14:48:31.059Z,988.77
2018-06-05T14:50:24.286Z,988.75
2018-06-05T14:51:23.903Z,988.83
2018-06-05T14:53:16.872Z,988.74
2018-06-05T14:54:16.765Z,988.71
2018-06-05T14:56:09.702Z,988.74
2018-06-05T14:57:09.604Z,988.72
2018-06-05T14:59:02.573Z,988.70
2018-06-05T15:00:02.475Z,988.70
2018-06-05T15:01:55.458Z,988.69
2018-06-05T15:02:55.331Z,988.71
2018-06-05T15:04:48.264Z,988.70
2018-06-05T15:05:48.162Z,988.69
2018-06-05T15:07:41.122Z,988.66
2018-06-05T15:08:41.014Z,988.67
2018-06-05T15:10:33.955Z,988.63
2018-06-05T15:11:33.875Z,988.66
2018-06-05T15:13:26.826Z,988.61
2018-06-05T15:14:26.726Z,988.63
2018-06-05T15:16:19.671Z,988.68
2018-06-05T15:17:19.625Z,988.69
2018-06-05T15:19:12.524Z,988.68
2018-06-05T15:20:12.439Z,988.67
2018-06-05T15:22:06.297Z,988.67
2018-06-05T15:23:06.212Z,988.68
2018-06-05T15:24:59.169Z,988.62
2018-06-05T15:25:59.055Z,988.65
2018-06-05T15:27:52.003Z,988.65
2018-06-05T15:28:51.924Z,988.60
2018-06-05T15:30:44.802Z,988.61
2018-06-05T15:31:44.653Z,988.63
2018-06-05T15:33:37.512Z,988.57
2018-06-05T15:34:37.405Z,988.58
2018-06-05T15:36:30.244Z,988.60
2018-06-05T15:37:30.155Z,988.61
2018-06-05T15:39:23.008Z,988.57
2018-06-05T15:40:22.898Z,988.56
2018-06-05T15:42:15.749Z,988.59
2018-06-05T15:43:15.649Z,988.56
2018-06-05T15:45:08.501Z,988.58
2018-06-05T15:46:08.405Z,988.54
2018-06-05T15:48:01.257Z,988.55
2018-06-05T15:49:01.153Z,988.55
2018-06-05T15:50:54.017Z,988.57
2018-06-05T15:51:53.902Z,988.55
2018-06-05T15:53:46.746Z,988.58
2018-06-05T15:54:46.654Z,988.54
2018-06-05T15:56:40.022Z,988.56
2018-06-05T15:57:39.913Z,988.59
2018-06-05T15:59:32.781Z,988.52
2018-06-05T16:00:32.670Z,988.58
2018-06-05T16:02:26.052Z,988.58
2018-06-05T16:03:25.914Z,988.54
2018-06-05T16:05:18.767Z,988.54
2018-06-05T16:06:18.670Z,988.61
2018-06-05T16:08:11.522Z,988.58
2018-06-05T16:09:11.427Z,988.57
2018-06-05T16:11:04.276Z,988.69
2018-06-05T16:12:04.220Z,988.69
2018-06-05T16:13:57.122Z,988.77
2018-06-05T16:14:57.040Z,988.82
2018-06-05T16:16:49.954Z,988.84
2018-06-05T16:17:49.866Z,988.82
2018-06-05T16:19:43.259Z,988.81
2018-06-05T16:20:42.635Z,988.80
2018-06-05T16:22:35.482Z,988.80
2018-06-05T16:23:35.371Z,988.75
2018-06-05T16:25:28.215Z,988.77
2018-06-05T16:26:28.196Z,988.77
2018-06-05T16:28:20.972Z,988.76
2018-06-05T16:29:20.871Z,988.75
2018-06-05T16:31:13.711Z,988.75
2018-06-05T16:32:13.627Z,988.74
2018-06-05T16:34:06.547Z,988.74
2018-06-05T16:35:06.379Z,988.71
2018-06-05T16:36:59.209Z,988.72
2018-06-05T16:37:59.121Z,988.76
2018-06-05T16:39:51.962Z,988.72
2018-06-05T16:40:51.883Z,988.73
2018-06-05T16:42:44.733Z,988.76
2018-06-05T16:43:44.622Z,988.72
2018-06-05T16:45:37.980Z,988.71
2018-06-05T16:46:37.888Z,988.74
2018-06-05T16:48:30.731Z,988.72
2018-06-05T16:49:30.649Z,988.71
2018-06-05T16:51:23.464Z,988.73
2018-06-05T16:52:23.381Z,988.67
2018-06-05T16:54:16.279Z,988.68
2018-06-05T16:55:16.140Z,988.72
2018-06-05T16:57:08.976Z,988.71
2018-06-05T16:58:08.895Z,988.73
2018-06-05T17:00:01.725Z,988.73
2018-06-05T17:01:01.657Z,988.74
2018-06-05T17:02:54.489Z,988.76
2018-06-05T17:03:54.409Z,988.76
2018-06-05T17:05:47.304Z,988.76
2018-06-05T17:06:47.188Z,988.78
2018-06-05T17:08:40.015Z,988.72
2018-06-05T17:09:39.888Z,988.74
2018-06-05T17:11:32.714Z,988.75
2018-06-05T17:12:32.669Z,988.76
2018-06-05T17:14:25.483Z,988.72
2018-06-05T17:15:25.411Z,988.75
2018-06-05T17:17:18.237Z,988.73
2018-06-05T17:18:18.138Z,988.75
2018-06-05T17:20:10.961Z,988.75
2018-06-05T17:21:10.888Z,988.75
2018-06-05T17:23:03.747Z,988.76
2018-06-05T17:24:03.645Z,988.74
2018-06-05T17:25:56.475Z,988.78
2018-06-05T17:26:56.396Z,988.79
2018-06-05T17:28:49.258Z,988.76
2018-06-05T17:29:49.130Z,988.77
2018-06-05T17:31:41.969Z,988.75
2018-06-05T17:32:41.909Z,988.79
2018-06-05T17:34:34.720Z,988.81
2018-06-05T17:35:34.638Z,988.82
2018-06-05T17:37:27.484Z,988.80
2018-06-05T17:38:27.403Z,988.82
2018-06-05T17:40:20.382Z,988.82
2018-06-05T17:41:20.135Z,988.83
2018-06-05T17:43:12.979Z,988.87
2018-06-05T17:44:12.887Z,988.82
2018-06-05T17:46:05.751Z,988.84
2018-06-05T17:47:05.664Z,988.89
2018-06-05T17:48:58.474Z,988.86
2018-06-05T17:49:58.388Z,988.83
2018-06-05T17:51:51.233Z,988.81
2018-06-05T17:52:51.150Z,988.83
2018-06-05T17:54:43.978Z,988.83
2018-06-05T17:55:43.889Z,988.83
2018-06-05T17:57:36.706Z,988.82